createdAt,value
2019-02-26T00:00:56.500Z,6.66
2019-02-26T00:01:57.562Z,6.62
2019-02-26T00:02:59.284Z,6.69
2019-02-26T00:03:55.767Z,6.66
2019-02-26T00:04:56.482Z,6.67
2019-02-26T00:05:56.809Z,6.71
2019-02-26T00:06:57.789Z,6.64
2019-02-26T00:07:57.739Z,6.67
2019-02-26T00:08:58.222Z,6.67
2019-02-26T00:09:57.459Z,6.71
2019-02-26T00:10:58.582Z,6.61
2019-02-26T00:11:55.861Z,6.69
2019-02-26T00:12:55.872Z,6.77
2019-02-26T00:13:57.349Z,6.79
2019-02-26T00:14:56.927Z,6.79
2019-02-26T00:15:55.908Z,6.79
2019-02-26T00:16:55.920Z,6.81
2019-02-26T00:17:55.928Z,6.77
2019-02-26T00:18:56.214Z,6.79
2019-02-26T00:19:55.952Z,6.73
2019-02-26T00:20:56.812Z,6.74
2019-02-26T00:21:55.975Z,6.74
2019-02-26T00:22:57.618Z,6.79
2019-02-26T00:23:55.999Z,6.77
2019-02-26T00:24:56.009Z,6.81
2019-02-26T00:25:56.019Z,6.77
2019-02-26T00:26:56.031Z,6.80
2019-02-26T00:27:56.897Z,6.87
2019-02-26T00:28:57.274Z,6.88
2019-02-26T00:29:56.068Z,6.85
2019-02-26T00:30:57.270Z,6.85
2019-02-26T00:31:57.775Z,6.79
2019-02-26T00:32:57.804Z,6.88
2019-02-26T00:33:56.114Z,6.84
2019-02-26T00:34:58.028Z,6.94
2019-02-26T00:35:56.135Z,6.91
2019-02-26T00:36:57.254Z,6.98
2019-02-26T00:37:56.164Z,6.91
2019-02-26T00:38:58.369Z,6.92
2019-02-26T00:39:56.429Z,6.98
2019-02-26T00:40:57.788Z,6.87
2019-02-26T00:41:58.072Z,6.92
2019-02-26T00:42:57.570Z,6.91
2019-02-26T00:43:57.727Z,6.91
2019-02-26T00:44:58.226Z,6.85
2019-02-26T00:45:58.191Z,6.88
2019-02-26T00:46:57.629Z,6.80
2019-02-26T00:47:56.276Z,6.91
2019-02-26T00:48:58.612Z,6.91
2019-02-26T00:49:56.299Z,6.88
2019-02-26T00:50:57.188Z,6.88
2019-02-26T00:51:56.324Z,6.87
2019-02-26T00:52:57.046Z,6.79
2019-02-26T00:53:57.428Z,6.88
2019-02-26T00:54:58.192Z,6.91
2019-02-26T00:55:58.419Z,6.98
2019-02-26T00:56:59.000Z,6.99
2019-02-26T00:57:56.977Z,6.95
2019-02-26T00:58:56.403Z,6.92
2019-02-26T00:59:56.417Z,6.94
2019-02-26T01:00:56.428Z,6.91
2019-02-26T01:01:56.995Z,6.80
2019-02-26T01:02:56.456Z,6.89
2019-02-26T01:03:56.464Z,6.85
2019-02-26T01:04:56.477Z,6.92
2019-02-26T01:05:57.051Z,6.84
2019-02-26T01:06:57.342Z,6.76
2019-02-26T01:07:56.510Z,6.74
2019-02-26T01:08:56.520Z,6.84
2019-02-26T01:09:56.989Z,6.76
2019-02-26T01:10:57.069Z,6.77
2019-02-26T01:11:56.556Z,6.79
2019-02-26T01:12:58.582Z,6.79
2019-02-26T01:13:57.403Z,6.80
2019-02-26T01:14:56.591Z,6.81
2019-02-26T01:15:56.605Z,6.74
2019-02-26T01:16:56.619Z,6.74
2019-02-26T01:17:58.707Z,6.76
2019-02-26T01:18:56.639Z,6.74
2019-02-26T01:19:58.802Z,6.67
2019-02-26T01:20:57.292Z,6.69
2019-02-26T01:21:56.672Z,6.69
2019-02-26T01:22:56.693Z,6.70
2019-02-26T01:23:58.949Z,6.61
2019-02-26T01:24:58.359Z,6.66
2019-02-26T01:25:56.719Z,6.69
2019-02-26T01:26:56.730Z,6.67
2019-02-26T01:27:58.572Z,6.69
2019-02-26T01:28:58.574Z,6.62
2019-02-26T01:29:58.226Z,6.62
2019-02-26T01:30:57.949Z,6.64
2019-02-26T01:31:56.795Z,6.66
2019-02-26T01:32:58.204Z,6.58
2019-02-26T01:33:57.426Z,6.66
2019-02-26T01:34:56.827Z,6.69
2019-02-26T01:35:58.062Z,6.74
2019-02-26T01:36:56.848Z,6.76
2019-02-26T01:37:59.935Z,6.76
2019-02-26T01:38:56.875Z,6.69
2019-02-26T01:39:56.881Z,6.70
2019-02-26T01:40:56.893Z,6.66
2019-02-26T01:41:58.620Z,6.67
2019-02-26T01:42:57.961Z,6.62
2019-02-26T01:43:56.928Z,6.61
2019-02-26T01:44:56.943Z,6.59
2019-02-26T01:45:56.956Z,6.64
2019-02-26T01:46:58.298Z,6.70
2019-02-26T01:47:56.978Z,6.66
2019-02-26T01:50:06.291Z,6.70
2019-02-26T01:51:04.489Z,6.64
2019-02-26T01:52:06.149Z,6.59
2019-02-26T01:53:04.506Z,6.79
2019-02-26T01:54:05.276Z,6.88
2019-02-26T01:55:04.534Z,6.89
2019-02-26T01:56:05.232Z,6.80
2019-02-26T01:57:08.594Z,6.79
2019-02-26T01:58:04.570Z,6.84
2019-02-26T01:59:04.582Z,6.84
2019-02-26T02:00:06.510Z,6.80
2019-02-26T02:01:04.604Z,6.81
2019-02-26T02:02:04.617Z,6.76
2019-02-26T02:03:04.623Z,6.73
2019-02-26T02:04:04.634Z,6.95
2019-02-26T02:05:06.746Z,6.99
2019-02-26T02:06:06.243Z,6.97
2019-02-26T02:07:06.043Z,7.03
2019-02-26T02:08:04.684Z,6.97
2019-02-26T02:09:04.696Z,6.84
2019-02-26T02:10:04.709Z,6.88
2019-02-26T02:11:06.712Z,6.84
2019-02-26T02:12:06.549Z,6.79
2019-02-26T02:13:07.063Z,6.77
2019-02-26T02:14:06.060Z,6.80
2019-02-26T02:15:04.765Z,6.84
2019-02-26T02:16:06.635Z,6.88
2019-02-26T02:17:06.122Z,6.84
2019-02-26T02:18:06.196Z,6.74
2019-02-26T02:19:04.812Z,6.81
2019-02-26T02:20:07.694Z,6.76
2019-02-26T02:21:04.832Z,6.80
2019-02-26T02:22:04.841Z,6.80
2019-02-26T02:23:06.972Z,6.81
2019-02-26T02:24:08.241Z,6.95
2019-02-26T02:25:04.876Z,7.06
2019-02-26T02:26:06.696Z,7.10
2019-02-26T02:27:04.903Z,7.20
2019-02-26T02:28:04.914Z,7.16
2019-02-26T02:29:04.922Z,7.17
2019-02-26T02:30:04.939Z,7.07
2019-02-26T02:31:04.947Z,7.09
2019-02-26T02:32:07.475Z,6.99
2019-02-26T02:33:04.975Z,6.98
2019-02-26T02:34:04.980Z,7.02
2019-02-26T02:35:06.741Z,6.98
2019-02-26T02:36:05.010Z,6.97
2019-02-26T02:37:05.014Z,6.95
2019-02-26T02:38:05.051Z,6.89
2019-02-26T02:39:10.491Z,6.84
2019-02-26T02:40:05.050Z,6.85
2019-02-26T02:41:05.063Z,6.85
2019-02-26T02:42:05.077Z,6.89
2019-02-26T02:43:09.753Z,6.84
2019-02-26T02:44:05.094Z,6.77
2019-02-26T02:45:07.254Z,6.80
2019-02-26T02:46:05.118Z,6.74
2019-02-26T02:47:06.805Z,6.81
2019-02-26T02:48:06.238Z,6.79
2019-02-26T02:49:07.389Z,6.74
2019-02-26T02:50:05.720Z,6.84
2019-02-26T02:51:05.987Z,6.80
2019-02-26T02:52:07.203Z,6.91
2019-02-26T02:53:05.213Z,6.91
2019-02-26T02:54:05.210Z,6.95
2019-02-26T02:55:06.984Z,6.94
2019-02-26T02:56:06.373Z,6.95
2019-02-26T02:57:07.496Z,6.92
2019-02-26T02:58:05.258Z,6.98
2019-02-26T02:59:05.955Z,6.98
2019-02-26T03:00:06.270Z,6.95
2019-02-26T03:01:05.301Z,6.98
2019-02-26T03:02:05.300Z,6.98
2019-02-26T03:03:05.316Z,6.94
2019-02-26T03:04:05.327Z,7.03
2019-02-26T03:05:05.347Z,6.94
2019-02-26T03:06:07.608Z,6.94
2019-02-26T03:07:05.368Z,6.95
2019-02-26T03:08:05.374Z,6.95
2019-02-26T03:09:06.931Z,6.94
2019-02-26T03:10:06.877Z,6.85
2019-02-26T03:11:05.403Z,6.89
2019-02-26T03:12:05.419Z,6.80
2019-02-26T03:13:05.430Z,6.88
2019-02-26T03:14:07.814Z,6.87
2019-02-26T03:15:07.469Z,6.84
2019-02-26T03:16:05.464Z,6.81
2019-02-26T03:17:06.468Z,6.84
2019-02-26T03:18:07.166Z,6.80
2019-02-26T03:19:07.714Z,6.89
2019-02-26T03:20:07.489Z,6.85
2019-02-26T03:21:05.523Z,6.80
2019-02-26T03:22:07.287Z,6.85
2019-02-26T03:23:07.342Z,6.94
2019-02-26T03:24:06.252Z,6.94
2019-02-26T03:25:05.567Z,6.94
2019-02-26T03:26:09.928Z,6.94
2019-02-26T03:27:05.603Z,6.95
2019-02-26T03:28:05.599Z,6.92
2019-02-26T03:29:05.616Z,6.95
2019-02-26T03:30:05.636Z,6.94
2019-02-26T03:31:05.635Z,6.95
2019-02-26T03:32:05.651Z,6.89
2019-02-26T03:33:05.658Z,6.98
2019-02-26T03:34:10.541Z,6.88
2019-02-26T03:35:07.415Z,6.94
2019-02-26T03:36:07.995Z,6.91
2019-02-26T03:37:08.151Z,6.95
2019-02-26T03:38:05.714Z,6.94
2019-02-26T03:39:05.728Z,6.98
2019-02-26T03:40:08.089Z,6.97
2019-02-26T03:41:05.759Z,6.95
2019-02-26T03:42:05.760Z,6.97
2019-02-26T03:43:07.725Z,6.92
2019-02-26T03:44:08.546Z,6.95
2019-02-26T03:45:05.796Z,6.95
2019-02-26T03:46:05.807Z,6.98
2019-02-26T03:47:05.819Z,6.95
2019-02-26T03:48:05.847Z,6.99
2019-02-26T03:49:05.847Z,6.98
2019-02-26T03:50:08.558Z,6.99
2019-02-26T03:51:05.868Z,7.03
2019-02-26T03:52:05.876Z,7.06
2019-02-26T03:53:09.064Z,7.07
2019-02-26T03:54:05.905Z,7.15
2019-02-26T03:55:06.794Z,7.20
2019-02-26T03:56:08.168Z,7.13
2019-02-26T03:57:05.934Z,7.16
2019-02-26T03:58:05.952Z,7.25
2019-02-26T03:59:06.752Z,7.25
2019-02-26T04:00:08.556Z,7.25
2019-02-26T04:01:08.422Z,7.28
2019-02-26T04:02:07.260Z,7.28
2019-02-26T04:03:09.250Z,7.12
2019-02-26T04:04:07.685Z,7.12
2019-02-26T04:05:08.594Z,7.09
2019-02-26T04:06:09.194Z,7.06
2019-02-26T04:07:09.887Z,7.02
2019-02-26T04:08:06.063Z,6.99
2019-02-26T04:09:08.348Z,6.97
2019-02-26T04:10:06.086Z,6.95
2019-02-26T04:11:06.097Z,6.80
2019-02-26T04:12:07.738Z,6.87
2019-02-26T04:13:06.137Z,6.87
2019-02-26T04:14:06.129Z,6.85
2019-02-26T04:15:06.144Z,6.87
2019-02-26T04:16:06.159Z,6.77
2019-02-26T04:17:06.986Z,6.79
2019-02-26T04:18:06.177Z,6.69
2019-02-26T04:19:08.941Z,6.69
2019-02-26T04:20:06.314Z,6.61
2019-02-26T04:21:09.501Z,6.70
2019-02-26T04:22:06.223Z,6.69
2019-02-26T04:23:08.371Z,6.69
2019-02-26T04:24:08.577Z,6.62
2019-02-26T04:25:09.123Z,6.64
2019-02-26T04:26:06.271Z,6.69
2019-02-26T04:27:06.283Z,6.62
2019-02-26T04:28:08.168Z,6.64
2019-02-26T04:29:06.313Z,6.66
2019-02-26T04:30:08.295Z,6.59
2019-02-26T04:31:06.327Z,6.64
2019-02-26T04:32:06.341Z,6.59
2019-02-26T04:33:07.256Z,6.58
2019-02-26T04:34:08.494Z,6.59
2019-02-26T04:35:06.373Z,6.52
2019-02-26T04:36:06.388Z,6.55
2019-02-26T04:37:07.184Z,6.51
2019-02-26T04:38:06.454Z,6.59
2019-02-26T04:39:07.629Z,6.51
2019-02-26T04:40:10.201Z,6.51
2019-02-26T04:41:09.466Z,6.56
2019-02-26T04:42:10.750Z,6.51
2019-02-26T04:43:07.231Z,6.55
2019-02-26T04:44:06.477Z,6.48
2019-02-26T04:45:09.033Z,6.56
2019-02-26T04:46:08.505Z,6.37
2019-02-26T04:47:06.514Z,6.40
2019-02-26T04:48:06.519Z,6.37
2019-02-26T04:49:06.532Z,6.34
2019-02-26T04:50:08.968Z,6.37
2019-02-26T04:51:06.557Z,6.34
2019-02-26T04:52:10.214Z,6.37
2019-02-26T04:53:08.923Z,6.37
2019-02-26T04:54:06.589Z,6.36
2019-02-26T04:55:06.603Z,6.38
2019-02-26T04:56:11.980Z,6.41
2019-02-26T04:57:06.625Z,6.36
2019-02-26T04:58:08.614Z,6.38
2019-02-26T04:59:09.182Z,6.34
2019-02-26T05:00:07.858Z,6.55
2019-02-26T05:01:08.000Z,6.51
2019-02-26T05:02:06.683Z,6.49
2019-02-26T05:03:08.610Z,6.54
2019-02-26T05:04:06.700Z,6.55
2019-02-26T05:05:06.713Z,6.48
2019-02-26T05:06:07.975Z,6.48
2019-02-26T05:07:09.834Z,6.51
2019-02-26T05:08:09.725Z,6.52
2019-02-26T05:09:08.097Z,6.46
2019-02-26T05:10:06.770Z,6.51
2019-02-26T05:11:06.786Z,6.55
2019-02-26T05:12:06.792Z,6.51
2019-02-26T05:13:09.502Z,6.56
2019-02-26T05:14:09.033Z,6.55
2019-02-26T05:15:11.464Z,6.55
2019-02-26T05:16:06.839Z,6.54
2019-02-26T05:17:06.853Z,6.52
2019-02-26T05:18:06.863Z,6.46
2019-02-26T05:19:06.874Z,6.36
2019-02-26T05:20:09.738Z,6.37
2019-02-26T05:21:08.344Z,6.43
2019-02-26T05:22:07.109Z,6.38
2019-02-26T05:23:06.921Z,6.51
2019-02-26T05:24:06.932Z,6.49
2019-02-26T05:25:10.395Z,6.41
2019-02-26T05:26:08.228Z,6.43
2019-02-26T05:27:09.528Z,6.41
2019-02-26T05:28:09.426Z,6.36
2019-02-26T05:29:06.988Z,6.40
2019-02-26T05:30:09.435Z,6.30
2019-02-26T05:31:09.041Z,6.38
2019-02-26T05:32:09.229Z,6.36
2019-02-26T05:33:07.028Z,6.25
2019-02-26T05:34:07.063Z,6.28
2019-02-26T05:35:07.054Z,6.25
2019-02-26T05:36:09.485Z,6.34
2019-02-26T05:37:08.134Z,6.36
2019-02-26T05:38:09.502Z,6.38
2019-02-26T05:39:07.096Z,6.37
2019-02-26T05:40:11.518Z,6.34
2019-02-26T05:41:07.119Z,6.36
2019-02-26T05:42:07.130Z,6.37
2019-02-26T05:43:07.145Z,6.37
2019-02-26T05:44:10.277Z,6.34
2019-02-26T05:45:09.383Z,6.38
2019-02-26T05:46:07.180Z,6.37
2019-02-26T05:47:07.190Z,6.46
2019-02-26T05:48:07.201Z,6.40
2019-02-26T05:49:10.552Z,6.43
2019-02-26T05:50:12.906Z,6.43
2019-02-26T05:51:09.327Z,6.43
2019-02-26T05:52:07.283Z,6.44
2019-02-26T05:53:08.436Z,6.62
2019-02-26T05:54:08.273Z,6.55
2019-02-26T05:55:07.285Z,6.56
2019-02-26T05:56:08.956Z,6.55
2019-02-26T05:57:09.486Z,6.58
2019-02-26T05:58:09.407Z,6.56
2019-02-26T05:59:09.625Z,6.51
2019-02-26T06:00:08.359Z,6.55
2019-02-26T06:01:07.347Z,6.61
2019-02-26T06:02:07.358Z,6.55
2019-02-26T06:03:09.695Z,6.55
2019-02-26T06:04:09.482Z,6.52
2019-02-26T06:05:07.400Z,6.52
2019-02-26T06:06:07.402Z,6.52
2019-02-26T06:07:07.414Z,6.61
2019-02-26T06:08:07.425Z,6.58
2019-02-26T06:09:07.841Z,6.71
2019-02-26T06:10:07.450Z,6.66
2019-02-26T06:11:07.459Z,6.61
2019-02-26T06:12:07.472Z,6.58
2019-02-26T06:13:08.269Z,6.55
2019-02-26T06:14:12.009Z,6.55
2019-02-26T06:15:08.051Z,6.56
2019-02-26T06:16:07.647Z,6.54
2019-02-26T06:17:09.717Z,6.49
2019-02-26T06:18:07.544Z,6.49
2019-02-26T06:19:08.507Z,6.54
2019-02-26T06:20:08.906Z,6.52
2019-02-26T06:21:07.571Z,6.52
2019-02-26T06:22:11.547Z,6.52
2019-02-26T06:23:07.598Z,6.49
2019-02-26T06:24:07.605Z,6.51
2019-02-26T06:25:13.293Z,6.51
2019-02-26T06:26:13.225Z,6.49
2019-02-26T06:27:10.844Z,6.49
2019-02-26T06:28:10.549Z,6.58
2019-02-26T06:29:07.665Z,6.70
2019-02-26T06:30:09.956Z,6.70
2019-02-26T06:31:11.488Z,6.64
2019-02-26T06:32:09.436Z,6.70
2019-02-26T06:33:09.784Z,6.71
2019-02-26T06:34:08.762Z,6.58
2019-02-26T06:35:08.536Z,6.56
2019-02-26T06:36:07.745Z,6.69
2019-02-26T06:37:09.482Z,6.71
2019-02-26T06:38:09.216Z,6.58
2019-02-26T06:39:07.779Z,6.59
2019-02-26T06:40:07.790Z,6.58
2019-02-26T06:41:07.801Z,6.84
2019-02-26T06:42:09.812Z,6.92
2019-02-26T06:43:07.820Z,6.94
2019-02-26T06:44:07.832Z,6.99
2019-02-26T06:45:08.513Z,6.98
2019-02-26T06:46:11.159Z,6.98
2019-02-26T06:47:09.136Z,6.99
2019-02-26T06:48:07.877Z,6.95
2019-02-26T06:49:07.889Z,6.84
2019-02-26T06:50:10.114Z,6.79
2019-02-26T06:51:07.911Z,6.79
2019-02-26T06:52:08.435Z,6.71
2019-02-26T06:53:09.145Z,6.79
2019-02-26T06:54:07.946Z,6.70
2019-02-26T06:55:07.961Z,6.69
2019-02-26T06:56:07.971Z,6.61
2019-02-26T06:57:07.984Z,6.66
2019-02-26T06:58:07.994Z,6.56
2019-02-26T06:59:09.719Z,6.58
2019-02-26T07:00:08.014Z,6.58
2019-02-26T07:01:09.589Z,6.48
2019-02-26T07:02:08.790Z,6.54
2019-02-26T07:03:08.047Z,6.44
2019-02-26T07:04:12.194Z,6.43
2019-02-26T07:05:08.075Z,6.48
2019-02-26T07:06:08.083Z,6.43
2019-02-26T07:07:12.196Z,6.37
2019-02-26T07:08:08.105Z,6.40
2019-02-26T07:09:08.733Z,6.31
2019-02-26T07:10:08.133Z,6.34
2019-02-26T07:11:08.142Z,6.38
2019-02-26T07:12:08.149Z,6.36
2019-02-26T07:13:09.315Z,6.40
2019-02-26T07:14:10.188Z,6.41
2019-02-26T07:15:11.665Z,6.36
2019-02-26T07:16:08.198Z,6.34
2019-02-26T07:17:08.211Z,6.41
2019-02-26T07:18:09.662Z,6.31
2019-02-26T07:19:09.112Z,6.37
2019-02-26T07:20:08.243Z,6.34
2019-02-26T07:21:08.256Z,6.36
2019-02-26T07:22:10.975Z,6.37
2019-02-26T07:23:10.469Z,6.34
2019-02-26T07:24:08.288Z,6.38
2019-02-26T07:25:10.433Z,6.40
2019-02-26T07:26:08.313Z,6.44
2019-02-26T07:27:09.128Z,6.40
2019-02-26T07:28:08.336Z,6.48
2019-02-26T07:29:10.369Z,6.55
2019-02-26T07:30:08.358Z,6.48
2019-02-26T07:31:09.906Z,6.59
2019-02-26T07:32:08.376Z,6.59
2019-02-26T07:33:10.368Z,6.71
2019-02-26T07:34:08.399Z,6.62
2019-02-26T07:35:09.256Z,6.71
2019-02-26T07:36:08.425Z,6.73
2019-02-26T07:37:09.324Z,6.79
2019-02-26T07:38:08.446Z,6.76
2019-02-26T07:39:10.315Z,6.80
2019-02-26T07:40:10.508Z,6.84
2019-02-26T07:41:08.483Z,6.81
2019-02-26T07:42:09.197Z,6.87
2019-02-26T07:43:11.517Z,6.81
2019-02-26T07:44:12.742Z,6.88
2019-02-26T07:45:15.009Z,6.92
2019-02-26T07:46:10.433Z,6.94
2019-02-26T07:47:09.566Z,6.95
2019-02-26T07:48:08.561Z,6.99
2019-02-26T07:49:08.569Z,6.97
2019-02-26T07:50:11.127Z,6.99
2019-02-26T07:51:08.593Z,7.05
2019-02-26T07:52:08.804Z,6.98
2019-02-26T07:53:08.617Z,7.06
2019-02-26T07:54:08.632Z,7.16
2019-02-26T07:55:11.771Z,7.21
2019-02-26T07:56:08.744Z,7.12
2019-02-26T07:57:08.663Z,7.09
2019-02-26T07:58:09.393Z,7.25
2019-02-26T07:59:09.948Z,7.27
2019-02-26T08:00:08.697Z,7.48
2019-02-26T08:01:08.707Z,7.63
2019-02-26T08:02:10.870Z,7.68
2019-02-26T08:03:08.729Z,7.95
2019-02-26T08:04:11.090Z,8.40
2019-02-26T08:05:08.761Z,8.58
2019-02-26T08:06:09.963Z,8.86
2019-02-26T08:07:08.775Z,9.24
2019-02-26T08:08:09.804Z,9.46
2019-02-26T08:09:12.061Z,9.48
2019-02-26T08:10:10.518Z,9.48
2019-02-26T08:11:08.824Z,9.64
2019-02-26T08:12:11.105Z,9.74
2019-02-26T08:13:08.851Z,9.76
2019-02-26T08:14:08.859Z,9.65
2019-02-26T08:15:10.485Z,9.74
2019-02-26T08:16:08.888Z,9.86
2019-02-26T08:17:08.896Z,10.02
2019-02-26T08:18:08.906Z,10.30
2019-02-26T08:19:08.925Z,10.34
2019-02-26T08:20:10.527Z,10.33
2019-02-26T08:21:08.945Z,10.33
2019-02-26T08:22:08.957Z,10.40
2019-02-26T08:23:08.970Z,10.45
2019-02-26T08:24:10.616Z,10.59
2019-02-26T08:25:08.992Z,10.59
2019-02-26T08:26:09.009Z,10.66
2019-02-26T08:27:10.814Z,10.84
2019-02-26T08:28:09.029Z,10.74
2019-02-26T08:29:09.937Z,10.79
2019-02-26T08:30:09.064Z,10.74
2019-02-26T08:31:11.221Z,10.64
2019-02-26T08:32:09.080Z,10.64
2019-02-26T08:33:09.097Z,10.47
2019-02-26T08:34:12.606Z,10.45
2019-02-26T08:35:09.124Z,10.59
2019-02-26T08:36:09.139Z,10.64
2019-02-26T08:37:09.146Z,10.70
2019-02-26T08:38:09.159Z,10.81
2019-02-26T08:39:09.177Z,10.66
2019-02-26T08:40:09.563Z,10.55
2019-02-26T08:41:09.199Z,10.61
2019-02-26T08:42:09.212Z,10.67
2019-02-26T08:43:09.230Z,10.70
2019-02-26T08:44:09.235Z,11.03
2019-02-26T08:45:09.267Z,11.14
2019-02-26T08:46:11.692Z,11.15
2019-02-26T08:47:11.423Z,11.04
2019-02-26T08:48:09.293Z,11.17
2019-02-26T08:49:11.016Z,11.11
2019-02-26T08:50:10.042Z,11.17
2019-02-26T08:51:13.534Z,11.17
2019-02-26T08:52:09.338Z,11.18
2019-02-26T08:53:09.354Z,11.02
2019-02-26T08:54:09.368Z,11.02
2019-02-26T08:55:10.739Z,10.86
2019-02-26T08:56:09.393Z,10.94
2019-02-26T08:57:09.410Z,10.99
2019-02-26T08:59:01.787Z,11.09
2019-02-26T09:00:00.901Z,11.17
2019-02-26T09:01:00.913Z,11.17
2019-02-26T09:02:00.923Z,11.27
2019-02-26T09:03:00.937Z,11.36
2019-02-26T09:04:00.954Z,11.49
2019-02-26T09:05:01.614Z,11.67
2019-02-26T09:06:10.903Z,11.75
2019-02-26T09:07:02.096Z,11.88
2019-02-26T09:08:01.009Z,11.79
2019-02-26T09:09:02.725Z,11.64
2019-02-26T09:10:01.032Z,11.55
2019-02-26T09:11:03.372Z,11.86
2019-02-26T09:12:03.057Z,11.83
2019-02-26T09:13:01.076Z,11.49
2019-02-26T09:14:02.209Z,11.54
2019-02-26T09:15:01.100Z,11.61
2019-02-26T09:16:03.119Z,11.69
2019-02-26T09:17:02.174Z,11.79
2019-02-26T09:18:01.145Z,11.76
2019-02-26T09:19:01.160Z,11.75
2019-02-26T09:20:09.464Z,11.85
2019-02-26T09:21:01.183Z,11.95
2019-02-26T09:22:01.198Z,12.28
2019-02-26T09:23:01.525Z,12.46
2019-02-26T09:24:02.618Z,12.41
2019-02-26T09:25:02.335Z,12.27
2019-02-26T09:26:02.604Z,11.91
2019-02-26T09:27:03.305Z,11.85
2019-02-26T09:28:01.283Z,11.88
2019-02-26T09:29:01.298Z,12.05
2019-02-26T09:30:03.284Z,12.52
2019-02-26T09:31:04.201Z,12.65
2019-02-26T09:32:01.341Z,12.82
2019-02-26T09:33:03.174Z,12.83
2019-02-26T09:34:01.368Z,12.62
2019-02-26T09:35:04.449Z,12.72
2019-02-26T09:36:01.394Z,13.05
2019-02-26T09:37:03.509Z,13.00
2019-02-26T09:38:01.421Z,12.90
2019-02-26T09:39:03.256Z,12.90
2019-02-26T09:40:04.496Z,12.67
2019-02-26T09:41:01.468Z,12.45
2019-02-26T09:42:02.405Z,12.53
2019-02-26T09:43:01.496Z,12.56
2019-02-26T09:44:03.841Z,12.59
2019-02-26T09:45:01.531Z,12.53
2019-02-26T09:46:01.543Z,12.41
2019-02-26T09:47:03.159Z,12.59
2019-02-26T09:48:01.569Z,12.85
2019-02-26T09:49:03.166Z,13.07
2019-02-26T09:50:01.599Z,13.30
2019-02-26T09:51:01.613Z,13.30
2019-02-26T09:52:03.823Z,13.45
2019-02-26T09:53:01.644Z,13.39
2019-02-26T09:54:01.657Z,13.46
2019-02-26T09:55:01.673Z,13.38
2019-02-26T09:56:01.690Z,13.92
2019-02-26T09:57:01.704Z,13.97
2019-02-26T09:58:02.567Z,14.18
2019-02-26T09:59:02.476Z,13.88
2019-02-26T10:00:03.332Z,14.33
2019-02-26T10:01:01.767Z,14.25
2019-02-26T10:02:03.553Z,14.10
2019-02-26T10:03:03.041Z,13.77
2019-02-26T10:04:04.996Z,14.24
2019-02-26T10:05:01.834Z,14.10
2019-02-26T10:06:01.842Z,14.02
2019-02-26T10:07:04.059Z,13.82
2019-02-26T10:08:03.494Z,13.96
2019-02-26T10:09:01.887Z,14.00
2019-02-26T10:10:04.010Z,14.36
2019-02-26T10:11:02.746Z,14.42
2019-02-26T10:12:02.780Z,14.64
2019-02-26T10:13:04.602Z,14.75
2019-02-26T10:14:02.828Z,14.68
2019-02-26T10:15:03.223Z,14.60
2019-02-26T10:16:04.453Z,14.55
2019-02-26T10:17:02.017Z,14.62
2019-02-26T10:18:04.875Z,14.84
2019-02-26T10:19:02.050Z,14.55
2019-02-26T10:20:04.414Z,14.73
2019-02-26T10:21:02.091Z,14.75
2019-02-26T10:22:05.478Z,14.54
2019-02-26T10:23:04.279Z,14.43
2019-02-26T10:24:04.502Z,14.24
2019-02-26T10:25:02.146Z,14.52
2019-02-26T10:26:03.332Z,14.20
2019-02-26T10:27:03.717Z,13.84
2019-02-26T10:28:05.772Z,14.17
2019-02-26T10:29:04.526Z,14.64
2019-02-26T10:30:04.898Z,14.65
2019-02-26T10:31:04.890Z,14.46
2019-02-26T10:32:02.262Z,14.80
2019-02-26T10:33:03.019Z,14.68
2019-02-26T10:34:03.062Z,14.68
2019-02-26T10:35:02.309Z,14.25
2019-02-26T10:36:04.853Z,14.37
2019-02-26T10:37:02.346Z,14.32
2019-02-26T10:38:05.546Z,14.25
2019-02-26T10:39:02.940Z,14.52
2019-02-26T10:40:02.392Z,14.91
2019-02-26T10:41:02.410Z,15.25
2019-02-26T10:42:02.738Z,15.16
2019-02-26T10:43:02.442Z,15.31
2019-02-26T10:44:02.458Z,15.14
2019-02-26T10:45:02.476Z,14.77
2019-02-26T10:46:02.493Z,14.84
2019-02-26T10:47:03.310Z,14.96
2019-02-26T10:48:02.554Z,14.77
2019-02-26T10:49:02.547Z,15.03
2019-02-26T10:50:02.568Z,15.43
2019-02-26T10:51:06.020Z,15.36
2019-02-26T10:52:02.595Z,15.43
2019-02-26T10:53:09.624Z,14.99
2019-02-26T10:54:03.418Z,15.41
2019-02-26T10:55:02.651Z,14.60
2019-02-26T10:56:02.668Z,14.58
2019-02-26T10:57:04.550Z,14.55
2019-02-26T10:58:07.156Z,14.72
2019-02-26T10:59:05.425Z,14.29
2019-02-26T11:00:05.602Z,14.27
2019-02-26T11:01:05.158Z,14.52
2019-02-26T11:02:03.211Z,14.83
2019-02-26T11:03:02.784Z,15.29
2019-02-26T11:04:04.450Z,15.41
2019-02-26T11:05:02.829Z,15.83
2019-02-26T11:06:04.591Z,15.75
2019-02-26T11:07:04.828Z,16.05
2019-02-26T11:08:08.806Z,15.76
2019-02-26T11:09:02.891Z,15.41
2019-02-26T11:10:02.904Z,15.31
2019-02-26T11:11:04.767Z,15.64
2019-02-26T11:12:05.692Z,15.62
2019-02-26T11:13:02.958Z,15.54
2019-02-26T11:14:05.157Z,15.28
2019-02-26T11:15:04.939Z,15.23
2019-02-26T11:16:03.185Z,15.36
2019-02-26T11:17:03.029Z,15.56
2019-02-26T11:18:03.048Z,15.47
2019-02-26T11:19:04.343Z,15.44
2019-02-26T11:20:04.598Z,15.50
2019-02-26T11:21:03.097Z,15.96
2019-02-26T11:22:04.153Z,15.94
2019-02-26T11:23:05.596Z,15.87
2019-02-26T11:24:03.652Z,15.65
2019-02-26T11:25:03.174Z,15.76
2019-02-26T11:26:04.089Z,15.39
2019-02-26T11:27:03.202Z,15.53
2019-02-26T11:28:05.620Z,14.94
2019-02-26T11:29:03.241Z,14.64
2019-02-26T11:30:05.099Z,14.65
2019-02-26T11:31:03.275Z,14.81
2019-02-26T11:32:04.629Z,14.61
2019-02-26T11:33:05.895Z,14.94
2019-02-26T11:34:06.463Z,14.89
2019-02-26T11:35:03.347Z,15.13
2019-02-26T11:36:05.299Z,15.65
2019-02-26T11:37:07.642Z,15.94
2019-02-26T11:38:03.401Z,15.72
2019-02-26T11:39:05.072Z,16.00
2019-02-26T11:40:05.370Z,16.21
2019-02-26T11:41:03.457Z,15.96
2019-02-26T11:42:03.478Z,15.96
2019-02-26T11:43:11.237Z,15.78
2019-02-26T11:44:07.185Z,15.56
2019-02-26T11:45:06.611Z,15.67
2019-02-26T11:46:04.484Z,15.64
2019-02-26T11:47:03.565Z,15.68
2019-02-26T11:48:05.669Z,15.51
2019-02-26T11:49:03.615Z,16.05
2019-02-26T11:50:06.495Z,15.67
2019-02-26T11:51:03.646Z,15.54
2019-02-26T11:52:04.382Z,15.67
2019-02-26T11:53:03.687Z,15.90
2019-02-26T11:54:04.974Z,15.68
2019-02-26T11:55:06.018Z,15.57
2019-02-26T11:56:03.732Z,15.82
2019-02-26T11:57:04.524Z,15.86
2019-02-26T11:58:05.759Z,16.23
2019-02-26T11:59:06.577Z,16.05
2019-02-26T12:00:04.504Z,15.92
2019-02-26T12:01:03.832Z,16.27
2019-02-26T12:02:04.569Z,16.21
2019-02-26T12:03:03.857Z,17.03
2019-02-26T12:04:06.071Z,16.91
2019-02-26T12:05:05.615Z,16.52
2019-02-26T12:06:06.812Z,16.28
2019-02-26T12:07:04.615Z,15.89
2019-02-26T12:08:03.952Z,15.94
2019-02-26T12:09:06.112Z,16.05
2019-02-26T12:10:09.297Z,16.09
2019-02-26T12:11:06.573Z,16.25
2019-02-26T12:12:06.227Z,16.30
2019-02-26T12:13:04.057Z,16.35
2019-02-26T12:14:04.063Z,16.41
2019-02-26T12:15:04.911Z,16.24
2019-02-26T12:16:04.100Z,16.15
2019-02-26T12:17:04.122Z,16.11
2019-02-26T12:18:04.137Z,16.00
2019-02-26T12:19:06.119Z,16.09
2019-02-26T12:20:04.180Z,16.04
2019-02-26T12:21:05.963Z,16.42
2019-02-26T12:22:06.069Z,16.46
2019-02-26T12:23:04.232Z,16.88
2019-02-26T12:24:06.619Z,17.12
2019-02-26T12:25:05.718Z,16.98
2019-02-26T12:26:04.293Z,17.04
2019-02-26T12:27:04.310Z,17.49
2019-02-26T12:28:05.504Z,17.82
2019-02-26T12:29:04.529Z,17.95
2019-02-26T12:30:04.365Z,17.81
2019-02-26T12:31:07.047Z,17.96
2019-02-26T12:32:04.716Z,17.58
2019-02-26T12:33:04.428Z,17.04
2019-02-26T12:34:04.443Z,16.58
2019-02-26T12:35:05.876Z,16.56
2019-02-26T12:36:06.708Z,16.75
2019-02-26T12:37:06.623Z,15.94
2019-02-26T12:39:04.540Z,15.02
2019-02-26T12:40:04.568Z,15.21
2019-02-26T12:41:08.259Z,15.60
2019-02-26T12:42:04.603Z,15.90
2019-02-26T12:43:06.575Z,15.60
2019-02-26T12:44:10.625Z,15.75
2019-02-26T12:45:06.835Z,15.54
2019-02-26T12:46:08.073Z,15.56
2019-02-26T12:47:04.696Z,15.35
2019-02-26T12:48:06.459Z,15.51
2019-02-26T12:49:05.715Z,15.53
2019-02-26T12:50:06.005Z,15.83
2019-02-26T12:51:07.513Z,16.23
2019-02-26T12:52:04.792Z,16.21
2019-02-26T12:53:04.810Z,16.73
2019-02-26T12:54:06.396Z,17.15
2019-02-26T12:55:08.139Z,17.52
2019-02-26T12:56:08.236Z,17.54
2019-02-26T12:57:04.893Z,17.68
2019-02-26T12:58:04.905Z,17.49
2019-02-26T12:59:07.167Z,17.56
2019-02-26T13:00:06.869Z,17.74
2019-02-26T13:01:04.965Z,17.74
2019-02-26T13:02:06.566Z,17.72
2019-02-26T13:03:05.566Z,17.72
2019-02-26T13:04:06.164Z,17.84
2019-02-26T13:05:06.674Z,18.14
2019-02-26T13:06:06.548Z,18.23
2019-02-26T13:07:07.988Z,18.42
2019-02-26T13:08:06.249Z,18.76
2019-02-26T13:09:05.135Z,18.44
2019-02-26T13:10:05.217Z,17.58
2019-02-26T13:11:05.163Z,17.25
2019-02-26T13:12:05.185Z,17.59